Time;durP1;ratioP1;P1;durP2;ratioP2;P2;SDS_P1;SDS_P2;PMS_P1;PMS_P2;Temp;Humidity;BMP_temperature;BMP_pressure;BME280_temperature;BME280_humidity;BME280_pressure;Samples;Min_cycle;Max_cycle;Signal;HPM_P1;HPM_P2
2023/08/09 00:01:21;;;;;;;6.53;1.23;;;;;;;;;;6224673;23;20030;-87
2023/08/09 00:03:51;;;;;;;6.43;1.13;;;;;;;;;;6224164;23;20168;-87
2023/08/09 00:06:21;;;;;;;6.82;1.30;;;;;;;;;;6224663;23;20072;-87
2023/08/09 00:08:48;;;;;;;5.70;1.33;;;;;;;;;;6225847;23;20043;-87
2023/08/09 00:11:18;;;;;;;9.25;1.33;;;;;;;;;;6227409;23;20102;-87
2023/08/09 00:13:45;;;;;;;4.07;1.23;;;;;;;;;;6240630;22;20016;-87
2023/08/09 00:16:15;;;;;;;2.72;1.42;;;;;;;;;;6228391;23;20020;-87
2023/08/09 00:18:42;;;;;;;3.58;1.35;;;;;;;;;;6252280;23;20035;-87
2023/08/09 00:21:10;;;;;;;3.65;1.27;;;;;;;;;;6222232;23;20171;-87
2023/08/09 00:23:36;;;;;;;4.22;1.35;;;;;;;;;;6224555;23;20016;-87
2023/08/09 00:26:12;;;;;;;6.88;1.90;;;;;;;;;;6224024;23;20028;-87
2023/08/09 00:28:39;;;;;;;9.10;1.95;;;;;;;;;;6251454;23;20337;-87
2023/08/09 00:31:06;;;;;;;2.33;1.40;;;;;;;;;;6225346;23;20341;-86
2023/08/09 00:33:33;;;;;;;5.45;2.03;;;;;;;;;;6252582;23;20024;-87
2023/08/09 00:36:00;;;;;;;7.70;1.83;;;;;;;;;;6227928;23;20020;-87
2023/08/09 00:38:27;;;;;;;5.90;1.85;;;;;;;;;;6228336;23;20247;-87
2023/08/09 00:40:56;;;;;;;7.07;2.00;;;;;;;;;;6228760;23;20020;-87
2023/08/09 00:43:23;;;;;;;8.00;2.17;;;;;;;;;;6233773;23;20024;-87
2023/08/09 00:45:53;;;;;;;3.90;1.70;;;;;;;;;;6231011;23;20024;-87
2023/08/09 00:48:20;;;;;;;8.15;2.45;;;;;;;;;;6223580;23;20448;-87
2023/08/09 00:50:47;;;;;;;8.27;2.45;;;;;;;;;;6224848;23;20031;-87
2023/08/09 00:53:17;;;;;;;9.13;2.75;;;;;;;;;;6249893;23;20048;-86
2023/08/09 00:55:45;;;;;;;6.35;3.22;;;;;;;;;;6253522;23;20031;-87
2023/08/09 00:58:12;;;;;;;6.72;2.10;;;;;;;;;;6226526;23;20024;-87
2023/08/09 01:00:38;;;;;;;5.38;2.05;;;;;;;;;;6226673;23;20499;-86
2023/08/09 01:03:09;;;;;;;11.60;2.83;;;;;;;;;;6228112;23;20024;-86
2023/08/09 01:05:46;;;;;;;9.00;2.67;;;;;;;;;;6253051;23;20028;-86
2023/08/09 01:08:18;;;;;;;11.73;2.78;;;;;;;;;;6226550;23;20023;-86
2023/08/09 01:10:55;;;;;;;8.75;3.25;;;;;;;;;;6227877;23;20035;-86
2023/08/09 01:13:24;;;;;;;8.60;2.60;;;;;;;;;;6228442;23;20020;-86
2023/08/09 01:15:51;;;;;;;8.73;2.80;;;;;;;;;;6225076;23;20024;-86
2023/08/09 01:18:19;;;;;;;3.70;2.80;;;;;;;;;;6223187;23;20016;-86
2023/08/09 01:20:56;;;;;;;16.85;3.30;;;;;;;;;;6225526;23;20012;-87
2023/08/09 01:23:29;;;;;;;3.53;2.72;;;;;;;;;;6230526;23;20071;-86
2023/08/09 01:25:56;;;;;;;6.70;3.22;;;;;;;;;;6230157;23;20179;-86
2023/08/09 01:28:23;;;;;;;4.25;2.72;;;;;;;;;;6228630;23;20074;-87
2023/08/09 01:30:50;;;;;;;9.35;2.92;;;;;;;;;;6229482;23;20020;-87
2023/08/09 01:33:17;;;;;;;12.32;3.28;;;;;;;;;;6228980;23;20024;-87
2023/08/09 01:35:49;;;;;;;5.80;3.15;;;;;;;;;;6227466;23;20031;-87
2023/08/09 01:38:22;;;;;;;8.93;3.92;;;;;;;;;;6201329;23;20103;-87
2023/08/09 01:40:49;;;;;;;6.20;3.33;;;;;;;;;;6223900;23;20184;-87
2023/08/09 01:43:16;;;;;;;10.55;3.95;;;;;;;;;;6197675;23;20021;-87
2023/08/09 01:45:43;;;;;;;12.18;4.20;;;;;;;;;;6198387;23;20028;-87
2023/08/09 01:48:13;;;;;;;7.00;3.55;;;;;;;;;;6197513;23;20024;-87
2023/08/09 01:50:43;;;;;;;7.60;3.40;;;;;;;;;;6195107;23;20325;-87
2023/08/09 01:53:09;;;;;;;7.75;3.47;;;;;;;;;;6195327;23;20420;-86
2023/08/09 01:55:38;;;;;;;10.82;4.22;;;;;;;;;;6197158;23;20044;-87
2023/08/09 01:58:05;;;;;;;12.15;4.43;;;;;;;;;;6197895;23;20151;-86
2023/08/09 02:00:32;;;;;;;12.45;4.80;;;;;;;;;;6197834;23;20080;-86
2023/08/09 02:02:59;;;;;;;12.93;5.20;;;;;;;;;;6227977;23;20033;-87
2023/08/09 02:05:26;;;;;;;12.75;5.35;;;;;;;;;;6198316;23;20020;-87
2023/08/09 02:07:56;;;;;;;10.85;5.65;;;;;;;;;;6196463;23;20021;-87
2023/08/09 02:10:23;;;;;;;10.45;4.97;;;;;;;;;;6224510;23;20024;-87
2023/08/09 02:12:57;;;;;;;12.00;5.03;;;;;;;;;;6198322;23;20077;-87
2023/08/09 02:15:25;;;;;;;17.60;6.35;;;;;;;;;;6194982;23;20073;-87
2023/08/09 02:17:52;;;;;;;12.32;5.05;;;;;;;;;;6196334;23;20040;-87
2023/08/09 02:20:19;;;;;;;15.55;5.15;;;;;;;;;;6221801;23;20034;-88
2023/08/09 02:22:48;;;;;;;15.77;5.25;;;;;;;;;;6195319;23;20028;-88
2023/08/09 02:25:18;;;;;;;15.52;6.10;;;;;;;;;;6221906;23;20048;-88
2023/08/09 02:27:48;;;;;;;10.90;5.63;;;;;;;;;;6222314;23;20068;-88
2023/08/09 02:30:18;;;;;;;11.02;5.75;;;;;;;;;;6197008;23;20115;-88
2023/08/09 02:32:47;;;;;;;14.07;5.88;;;;;;;;;;6195653;23;20031;-88
2023/08/09 02:35:15;;;;;;;11.50;5.53;;;;;;;;;;6195820;23;20038;-88
2023/08/09 02:37:42;;;;;;;11.57;5.70;;;;;;;;;;6219794;23;20090;-88
2023/08/09 02:40:10;;;;;;;18.90;6.63;;;;;;;;;;6194418;23;20101;-88
2023/08/09 02:42:41;;;;;;;11.85;5.70;;;;;;;;;;6193703;23;20036;-88
2023/08/09 02:45:08;;;;;;;10.55;5.60;;;;;;;;;;6220929;23;20028;-88
2023/08/09 02:47:38;;;;;;;12.23;5.53;;;;;;;;;;6194306;23;20028;-88
2023/08/09 02:50:06;;;;;;;11.40;6.38;;;;;;;;;;6199162;23;20016;-88
2023/08/09 02:52:33;;;;;;;15.13;6.15;;;;;;;;;;6209509;23;20020;-88
2023/08/09 02:54:59;;;;;;;11.65;5.63;;;;;;;;;;6201787;23;20025;-88
2023/08/09 02:57:40;;;;;;;16.38;6.43;;;;;;;;;;6216583;23;20029;-88
2023/08/09 03:00:16;;;;;;;15.82;6.25;;;;;;;;;;6211426;23;20047;-89
2023/08/09 03:02:46;;;;;;;14.73;6.13;;;;;;;;;;6219240;23;20089;-89
2023/08/09 03:05:16;;;;;;;14.48;6.85;;;;;;;;;;6223095;23;20091;-89
2023/08/09 03:07:43;;;;;;;11.60;6.43;;;;;;;;;;6195468;23;20025;-89
2023/08/09 03:10:10;;;;;;;11.95;6.18;;;;;;;;;;6194620;23;20024;-89
2023/08/09 03:12:37;;;;;;;13.65;6.38;;;;;;;;;;6195054;23;20024;-89
2023/08/09 03:15:05;;;;;;;17.02;6.40;;;;;;;;;;6195605;23;20047;-89
2023/08/09 03:17:32;;;;;;;11.25;6.22;;;;;;;;;;6223278;23;20306;-88
2023/08/09 03:19:59;;;;;;;13.80;6.32;;;;;;;;;;6221289;23;20266;-89
2023/08/09 03:22:26;;;;;;;11.13;6.22;;;;;;;;;;6201564;23;20024;-88
2023/08/09 03:24:53;;;;;;;12.88;6.90;;;;;;;;;;6199043;23;20032;-89
2023/08/09 03:27:20;;;;;;;12.52;6.57;;;;;;;;;;6196474;23;20060;-88
2023/08/09 03:29:48;;;;;;;13.23;5.97;;;;;;;;;;6222406;23;20104;-89
2023/08/09 03:32:15;;;;;;;12.30;6.63;;;;;;;;;;6223483;23;20025;-89
2023/08/09 03:34:42;;;;;;;10.23;6.50;;;;;;;;;;6241414;23;20009;-88
2023/08/09 03:37:23;;;;;;;13.02;5.97;;;;;;;;;;6257622;22;20008;-90
2023/08/09 03:54:18;;;;;;;15.32;7.35;;;;;;;;;;6268409;22;20004;-88
2023/08/09 03:57:03;;;;;;;12.30;6.43;;;;;;;;;;6259884;22;20027;-89
2023/08/09 03:59:42;;;;;;;15.27;6.85;;;;;;;;;;6274644;22;20027;-90
2023/08/09 04:02:45;;;;;;;19.83;7.47;;;;;;;;;;6295842;22;20125;-88
2023/08/09 04:05:35;;;;;;;13.00;7.35;;;;;;;;;;6277212;22;20103;-85
2023/08/09 04:08:26;;;;;;;11.50;7.35;;;;;;;;;;6279875;22;20003;-90
2023/08/09 04:11:08;;;;;;;21.73;8.90;;;;;;;;;;6301935;22;20042;-88
2023/08/09 04:13:54;;;;;;;19.63;8.25;;;;;;;;;;6299732;22;20035;-89
2023/08/09 04:16:36;;;;;;;18.52;7.68;;;;;;;;;;6278348;22;20015;-89
2023/08/09 04:19:19;;;;;;;15.95;8.32;;;;;;;;;;6276555;22;20016;-88
2023/08/09 04:22:04;;;;;;;20.27;7.97;;;;;;;;;;6298798;22;20012;-90
2023/08/09 04:24:45;;;;;;;17.25;8.68;;;;;;;;;;6277856;22;20011;-87
2023/08/09 04:27:28;;;;;;;17.42;8.65;;;;;;;;;;6239957;22;20009;-89
2023/08/09 04:32:53;;;;;;;16.25;8.30;;;;;;;;;;6300182;22;20144;-87
2023/08/09 04:35:59;;;;;;;17.77;8.68;;;;;;;;;;6296935;22;20035;-87
2023/08/09 04:38:49;;;;;;;19.00;8.25;;;;;;;;;;6299798;22;20019;-88
2023/08/09 04:42:06;;;;;;;;;;;;;;;;;;;;;
2023/08/09 04:45:24;;;;;;;20.05;9.32;;;;;;;;;;6298580;22;20019;-87
2023/08/09 05:02:35;;;;;;;17.60;7.70;;;;;;;;;;6300423;22;20004;-87
2023/08/09 05:05:40;;;;;;;17.27;8.02;;;;;;;;;;6300195;22;20067;-87
2023/08/09 05:13:59;;;;;;;13.25;5.68;;;;;;;;;;6267887;22;20050;-88
2023/08/09 05:19:38;;;;;;;7.43;3.60;;;;;;;;;;6264795;22;20015;-86
2023/08/09 05:25:18;;;;;;;9.98;3.30;;;;;;;;;;6275086;22;20007;-90
2023/08/09 05:28:18;;;;;;;7.15;2.92;;;;;;;;;;6299057;22;20016;-88
2023/08/09 05:36:45;;;;;;;;;;;;;;;;;;;;;
2023/08/09 05:39:39;;;;;;;5.57;2.30;;;;;;;;;;6296831;22;20030;-87
2023/08/09 05:42:20;;;;;;;7.35;2.40;;;;;;;;;;6293504;22;20067;-88
2023/08/09 05:45:09;;;;;;;6.28;2.50;;;;;;;;;;6291651;22;20054;-88
2023/08/09 05:53:37;;;;;;;5.73;2.30;;;;;;;;;;6265160;22;20027;-88
2023/08/09 05:56:35;;;;;;;9.02;2.50;;;;;;;;;;6296096;22;20070;-88
2023/08/09 05:59:49;;;;;;;5.40;2.33;;;;;;;;;;6291240;22;20091;-89
2023/08/09 06:06:10;;;;;;;6.85;2.10;;;;;;;;;;6236373;23;20004;-89
2023/08/09 06:13:01;;;;;;;9.40;1.92;;;;;;;;;;6262100;22;20016;-89
2023/08/09 06:16:11;;;;;;;4.10;2.00;;;;;;;;;;6272533;22;20239;-89
2023/08/09 06:19:28;;;;;;;5.07;1.58;;;;;;;;;;6275320;22;20439;-91
2023/08/09 06:22:22;;;;;;;5.13;1.90;;;;;;;;;;6247856;22;20038;-87
2023/08/09 06:25:23;;;;;;;3.75;1.38;;;;;;;;;;6242366;22;20059;-87
2023/08/09 06:28:30;;;;;;;5.32;1.52;;;;;;;;;;6264456;23;20012;-87
2023/08/09 06:36:51;;;;;;;3.97;1.10;;;;;;;;;;6262916;22;20003;-88
2023/08/09 06:39:35;;;;;;;2.60;1.40;;;;;;;;;;6267960;22;20076;-87
2023/08/09 06:42:56;;;;;;;3.90;1.40;;;;;;;;;;6295018;22;20019;-87
2023/08/09 06:45:40;;;;;;;6.88;1.67;;;;;;;;;;6270153;22;20022;-87
2023/08/09 06:48:36;;;;;;;7.38;1.05;;;;;;;;;;6286755;22;20023;-89
2023/08/09 06:51:25;;;;;;;3.25;1.40;;;;;;;;;;6293957;22;20067;-88
2023/08/09 06:54:23;;;;;;;;;;;;;;;;;;;;;
2023/08/09 06:57:22;;;;;;;2.08;1.20;;;;;;;;;;6271421;22;20020;-87
2023/08/09 07:00:38;;;;;;;7.05;1.02;;;;;;;;;;6295632;22;20016;-87
2023/08/09 07:03:37;;;;;;;3.25;1.02;;;;;;;;;;6292011;22;20000;-87
2023/08/09 07:06:27;;;;;;;5.40;1.05;;;;;;;;;;6293287;22;20008;-89
2023/08/09 07:09:33;;;;;;;7.20;0.80;;;;;;;;;;6294960;22;20012;-88
2023/08/09 07:12:39;;;;;;;5.30;0.90;;;;;;;;;;6292936;22;20004;-87
2023/08/09 07:19:14;;;;;;;3.08;0.90;;;;;;;;;;6265884;22;20153;-88
2023/08/09 07:22:37;;;;;;;4.93;0.85;;;;;;;;;;6289310;22;20030;-87
2023/08/09 07:46:07;;;;;;;;;;;;;;;;;;;;;
2023/08/09 08:44:31;;;;;;;3.38;0.98;;;;;;;;;;6254937;22;20095;-90
2023/08/09 09:06:32;;;;;;;1.05;0.30;;;;;;;;;;6276998;22;20007;-88
2023/08/09 09:09:31;;;;;;;1.23;0.47;;;;;;;;;;6296650;22;20030;-87
2023/08/09 09:16:08;;;;;;;1.85;0.60;;;;;;;;;;6143447;23;20029;-88
2023/08/09 09:22:16;;;;;;;1.92;0.60;;;;;;;;;;6291601;22;20039;-88
2023/08/09 09:25:29;;;;;;;4.05;0.50;;;;;;;;;;6217574;22;20125;-88
2023/08/09 09:50:28;;;;;;;1.35;0.30;;;;;;;;;;6264173;22;20034;-87
2023/08/09 20:48:51;;;;;;;8.65;1.73;;;;;;;;;;6236243;22;20023;31
2023/08/09 20:51:36;;;;;;;6.00;1.80;;;;;;;;;;6197033;23;20039;-90
2023/08/09 20:55:00;;;;;;;5.53;2.10;;;;;;;;;;6223147;23;20035;-90
2023/08/09 20:58:28;;;;;;;6.72;1.45;;;;;;;;;;6196083;23;20499;-90
2023/08/09 21:01:26;;;;;;;4.72;1.30;;;;;;;;;;6195776;23;20016;-91
2023/08/09 21:04:12;;;;;;;8.43;1.70;;;;;;;;;;6184246;23;20020;-90
2023/08/09 21:06:52;;;;;;;3.15;1.38;;;;;;;;;;6206389;23;20036;-90
2023/08/09 21:12:38;;;;;;;3.30;1.83;;;;;;;;;;6216933;23;20218;-90
2023/08/09 21:15:36;;;;;;;6.68;1.58;;;;;;;;;;6199054;23;20029;-90
2023/08/09 21:18:21;;;;;;;9.88;1.85;;;;;;;;;;6231039;23;20051;-90
2023/08/09 21:21:15;;;;;;;6.68;1.20;;;;;;;;;;6206159;23;20031;-90
2023/08/09 21:44:57;;;;;;;;;;;;;;;;;;;;;
2023/08/09 21:48:10;;;;;;;;;;;;;;;;;;;;;
2023/08/09 21:51:29;;;;;;;6.72;1.65;;;;;;;;;;6222319;23;20032;-87
2023/08/09 21:54:47;;;;;;;7.85;1.80;;;;;;;;;;6102586;23;20283;-87
2023/08/09 21:58:02;;;;;;;7.63;1.77;;;;;;;;;;6077175;23;20018;-87
2023/08/09 22:01:41;;;;;;;;;;;;;;;;;;;;;
2023/08/09 22:04:44;;;;;;;5.95;1.90;;;;;;;;;;6058946;23;20369;-88
2023/08/09 22:07:54;;;;;;;5.45;2.00;;;;;;;;;;6097516;23;20058;-88
2023/08/09 22:10:50;;;;;;;;;;;;;;;;;;;;;
2023/08/09 22:20:35;;;;;;;9.88;2.08;;;;;;;;;;5998934;24;20047;-87
2023/08/09 22:23:44;;;;;;;5.88;2.00;;;;;;;;;;6053740;23;20023;-88
2023/08/09 22:26:23;;;;;;;11.93;2.35;;;;;;;;;;6134511;23;20120;-88
2023/08/09 22:29:32;;;;;;;3.95;1.98;;;;;;;;;;6152783;23;20088;-88
2023/08/09 22:32:22;;;;;;;3.55;1.88;;;;;;;;;;6143715;23;20014;-87
2023/08/09 22:42:17;;;;;;;7.78;2.10;;;;;;;;;;6107351;23;20030;-88
2023/08/09 22:45:19;;;;;;;8.68;2.33;;;;;;;;;;6085365;23;20022;-87
2023/08/09 22:48:26;;;;;;;3.65;2.10;;;;;;;;;;6091560;23;20011;-88
2023/08/09 22:55:24;;;;;;;6.05;2.15;;;;;;;;;;5998026;23;20052;-88
2023/08/09 22:58:46;;;;;;;5.40;2.08;;;;;;;;;;6091720;23;20019;-87
2023/08/09 23:01:55;;;;;;;;;;;;;;;;;;;;;
2023/08/09 23:08:32;;;;;;;6.13;2.15;;;;;;;;;;6117867;23;20021;-87
2023/08/09 23:11:46;;;;;;;4.60;1.98;;;;;;;;;;6135264;22;20038;-87
2023/08/09 23:22:21;;;;;;;6.80;1.95;;;;;;;;;;6247319;22;20011;-87
2023/08/09 23:25:26;;;;;;;4.20;2.03;;;;;;;;;;6207757;22;20032;-87
2023/08/09 23:31:58;;;;;;;6.50;1.92;;;;;;;;;;6202375;23;20020;-90
2023/08/09 23:34:52;;;;;;;5.93;2.33;;;;;;;;;;6201091;23;20176;-89
2023/08/09 23:40:41;;;;;;;6.57;2.10;;;;;;;;;;6142189;23;20066;-89
2023/08/09 23:47:12;;;;;;;5.03;2.25;;;;;;;;;;6196838;23;20023;-90
2023/08/09 23:53:06;;;;;;;11.23;3.17;;;;;;;;;;6181433;23;20044;-90
2023/08/09 23:56:16;;;;;;;10.35;2.60;;;;;;;;;;6201621;23;20301;-90
2023/08/09 23:59:12;;;;;;;9.30;2.97;;;;;;;;;;6191471;23;20025;-89
